sensor_id;sensor_type;location;lat;lon;timestamp;pressure;altitude;pressure_sealevel;temperature;humidity
63339;BME280;47485;51.378;-1.342;2022-11-11T00:02:02;100887.33;;;9.80;40.03
63339;BME280;47485;51.378;-1.342;2022-11-11T00:04:29;100885.65;;;8.75;41.03
63339;BME280;47485;51.378;-1.342;2022-11-11T00:06:55;100890.54;;;10.30;40.05
63339;BME280;47485;51.378;-1.342;2022-11-11T00:09:22;100897.00;;;6.94;42.78
63339;BME280;47485;51.378;-1.342;2022-11-11T00:11:49;100895.94;;;9.93;39.44
63339;BME280;47485;51.378;-1.342;2022-11-11T00:14:20;100898.04;;;8.22;42.05
63339;BME280;47485;51.378;-1.342;2022-11-11T00:16:47;100900.11;;;8.10;42.07
63339;BME280;47485;51.378;-1.342;2022-11-11T00:19:14;100898.57;;;9.33;41.63
63339;BME280;47485;51.378;-1.342;2022-11-11T00:21:41;100899.03;;;9.05;41.96
63339;BME280;47485;51.378;-1.342;2022-11-11T00:24:20;100895.54;;;10.45;39.89
63339;BME280;47485;51.378;-1.342;2022-11-11T00:26:47;100888.60;;;9.51;39.74
63339;BME280;47485;51.378;-1.342;2022-11-11T00:29:14;100883.36;;;11.69;38.34
63339;BME280;47485;51.378;-1.342;2022-11-11T00:31:40;100885.68;;;10.45;38.11
63339;BME280;47485;51.378;-1.342;2022-11-11T00:34:07;100884.41;;;10.05;40.20
63339;BME280;47485;51.378;-1.342;2022-11-11T00:36:35;100897.59;;;7.78;44.60
63339;BME280;47485;51.378;-1.342;2022-11-11T00:39:02;100890.77;;;9.91;41.69
63339;BME280;47485;51.378;-1.342;2022-11-11T00:41:29;100883.82;;;7.81;43.52
63339;BME280;47485;51.378;-1.342;2022-11-11T00:43:55;100889.38;;;8.76;43.75
63339;BME280;47485;51.378;-1.342;2022-11-11T00:46:22;100884.03;;;8.81;44.47
63339;BME280;47485;51.378;-1.342;2022-11-11T00:48:49;100889.48;;;9.65;43.53
63339;BME280;47485;51.378;-1.342;2022-11-11T00:51:15;100887.10;;;8.02;44.62
63339;BME280;47485;51.378;-1.342;2022-11-11T00:53:42;100896.65;;;6.56;47.20
63339;BME280;47485;51.378;-1.342;2022-11-11T00:56:09;100890.15;;;7.54;43.08
63339;BME280;47485;51.378;-1.342;2022-11-11T00:58:36;100894.48;;;9.90;41.29
63339;BME280;47485;51.378;-1.342;2022-11-11T01:01:03;100896.73;;;9.99;42.77
63339;BME280;47485;51.378;-1.342;2022-11-11T01:03:30;100895.84;;;8.40;45.59
63339;BME280;47485;51.378;-1.342;2022-11-11T01:05:59;100890.48;;;9.70;43.43
63339;BME280;47485;51.378;-1.342;2022-11-11T01:08:26;100882.52;;;10.45;44.10
63339;BME280;47485;51.378;-1.342;2022-11-11T01:10:53;100894.65;;;8.76;44.67
63339;BME280;47485;51.378;-1.342;2022-11-11T01:13:22;100895.40;;;8.69;44.89
63339;BME280;47485;51.378;-1.342;2022-11-11T01:15:51;100890.19;;;8.30;46.23
63339;BME280;47485;51.378;-1.342;2022-11-11T01:18:21;100893.27;;;9.59;44.02
63339;BME280;47485;51.378;-1.342;2022-11-11T01:20:57;100891.61;;;10.05;42.90
63339;BME280;47485;51.378;-1.342;2022-11-11T01:23:25;100895.13;;;7.64;46.18
63339;BME280;47485;51.378;-1.342;2022-11-11T01:25:52;100902.88;;;7.17;46.52
63339;BME280;47485;51.378;-1.342;2022-11-11T01:28:19;100895.59;;;6.45;47.26
63339;BME280;47485;51.378;-1.342;2022-11-11T01:30:45;100892.51;;;7.59;44.83
63339;BME280;47485;51.378;-1.342;2022-11-11T01:33:12;100889.62;;;10.49;44.28
63339;BME280;47485;51.378;-1.342;2022-11-11T01:35:40;100904.95;;;5.31;46.20
63339;BME280;47485;51.378;-1.342;2022-11-11T01:38:09;100896.91;;;6.49;46.56
63339;BME280;47485;51.378;-1.342;2022-11-11T01:40:40;100885.29;;;8.54;42.74
63339;BME280;47485;51.378;-1.342;2022-11-11T01:43:17;100889.80;;;9.54;41.72
63339;BME280;47485;51.378;-1.342;2022-11-11T01:45:48;100886.39;;;12.27;37.74
63339;BME280;47485;51.378;-1.342;2022-11-11T01:48:18;100891.36;;;8.82;40.07
63339;BME280;47485;51.378;-1.342;2022-11-11T01:50:47;100883.39;;;9.98;37.59
63339;BME280;47485;51.378;-1.342;2022-11-11T01:53:14;100890.96;;;12.19;38.13
63339;BME280;47485;51.378;-1.342;2022-11-11T01:55:41;100890.82;;;8.38;41.88
63339;BME280;47485;51.378;-1.342;2022-11-11T01:58:12;100893.72;;;9.97;41.35
63339;BME280;47485;51.378;-1.342;2022-11-11T02:00:41;100890.50;;;6.67;44.61
63339;BME280;47485;51.378;-1.342;2022-11-11T02:03:10;100882.82;;;7.77;44.92
63339;BME280;47485;51.378;-1.342;2022-11-11T02:05:37;100885.11;;;9.80;44.10
63339;BME280;47485;51.378;-1.342;2022-11-11T02:08:06;100880.54;;;7.94;44.04
63339;BME280;47485;51.378;-1.342;2022-11-11T02:10:37;100894.87;;;8.72;44.29
63339;BME280;47485;51.378;-1.342;2022-11-11T02:13:12;100888.26;;;7.15;46.12
63339;BME280;47485;51.378;-1.342;2022-11-11T02:15:39;100898.09;;;7.97;47.25
63339;BME280;47485;51.378;-1.342;2022-11-11T02:18:06;100894.23;;;9.66;45.29
63339;BME280;47485;51.378;-1.342;2022-11-11T02:20:37;100893.72;;;9.56;43.44
63339;BME280;47485;51.378;-1.342;2022-11-11T02:23:07;100889.61;;;9.07;42.00
63339;BME280;47485;51.378;-1.342;2022-11-11T02:25:38;100888.26;;;9.94;43.76
63339;BME280;47485;51.378;-1.342;2022-11-11T02:28:08;100886.10;;;10.14;43.12
63339;BME280;47485;51.378;-1.342;2022-11-11T02:30:36;100882.55;;;9.31;42.25
63339;BME280;47485;51.378;-1.342;2022-11-11T02:33:04;100880.63;;;10.74;41.56
63339;BME280;47485;51.378;-1.342;2022-11-11T02:35:32;100876.87;;;9.71;42.11
63339;BME280;47485;51.378;-1.342;2022-11-11T02:38:01;100891.65;;;6.56;46.70
63339;BME280;47485;51.378;-1.342;2022-11-11T02:40:32;100874.06;;;8.65;45.28
63339;BME280;47485;51.378;-1.342;2022-11-11T02:43:00;100873.37;;;6.85;45.80
63339;BME280;47485;51.378;-1.342;2022-11-11T02:45:27;100865.45;;;9.29;44.68
63339;BME280;47485;51.378;-1.342;2022-11-11T02:47:54;100872.14;;;7.02;47.45
63339;BME280;47485;51.378;-1.342;2022-11-11T02:50:21;100872.84;;;7.54;47.30
63339;BME280;47485;51.378;-1.342;2022-11-11T02:52:48;100869.02;;;6.90;45.26
63339;BME280;47485;51.378;-1.342;2022-11-11T02:55:14;100866.71;;;9.36;43.23
63339;BME280;47485;51.378;-1.342;2022-11-11T02:57:41;100859.87;;;10.60;43.90
63339;BME280;47485;51.378;-1.342;2022-11-11T03:00:09;100862.39;;;9.51;44.29
63339;BME280;47485;51.378;-1.342;2022-11-11T03:02:36;100855.09;;;10.98;43.11
63339;BME280;47485;51.378;-1.342;2022-11-11T03:05:03;100862.95;;;8.49;43.45
63339;BME280;47485;51.378;-1.342;2022-11-11T03:07:30;100871.49;;;7.29;48.59
63339;BME280;47485;51.378;-1.342;2022-11-11T03:09:57;100865.21;;;7.40;45.33
63339;BME280;47485;51.378;-1.342;2022-11-11T03:12:24;100866.98;;;8.12;45.94
63339;BME280;47485;51.378;-1.342;2022-11-11T03:14:51;100876.82;;;7.39;44.67
63339;BME280;47485;51.378;-1.342;2022-11-11T03:17:17;100883.83;;;8.20;44.69
63339;BME280;47485;51.378;-1.342;2022-11-11T03:19:44;100886.00;;;8.85;43.93
63339;BME280;47485;51.378;-1.342;2022-11-11T03:22:10;100894.81;;;7.31;47.28
63339;BME280;47485;51.378;-1.342;2022-11-11T03:24:37;100887.14;;;9.96;42.97
63339;BME280;47485;51.378;-1.342;2022-11-11T03:27:03;100882.19;;;7.03;46.06
63339;BME280;47485;51.378;-1.342;2022-11-11T03:29:30;100885.26;;;8.52;46.05
63339;BME280;47485;51.378;-1.342;2022-11-11T03:31:57;100884.64;;;7.83;45.47
63339;BME280;47485;51.378;-1.342;2022-11-11T03:34:24;100880.43;;;8.77;45.87
63339;BME280;47485;51.378;-1.342;2022-11-11T03:36:50;100880.97;;;9.38;43.14
63339;BME280;47485;51.378;-1.342;2022-11-11T03:39:17;100878.78;;;7.28;44.75
63339;BME280;47485;51.378;-1.342;2022-11-11T03:41:44;100873.21;;;10.45;42.24
63339;BME280;47485;51.378;-1.342;2022-11-11T03:44:10;100867.25;;;9.67;43.28
63339;BME280;47485;51.378;-1.342;2022-11-11T03:46:37;100868.58;;;8.82;43.06
63339;BME280;47485;51.378;-1.342;2022-11-11T03:49:09;100870.92;;;9.82;41.88
63339;BME280;47485;51.378;-1.342;2022-11-11T03:51:36;100869.55;;;8.77;42.68
63339;BME280;47485;51.378;-1.342;2022-11-11T03:54:03;100869.06;;;10.53;41.19
63339;BME280;47485;51.378;-1.342;2022-11-11T03:56:29;100869.49;;;9.74;41.35
63339;BME280;47485;51.378;-1.342;2022-11-11T03:58:56;100874.07;;;9.12;42.61
63339;BME280;47485;51.378;-1.342;2022-11-11T04:01:23;100871.88;;;9.47;43.69
63339;BME280;47485;51.378;-1.342;2022-11-11T04:03:50;100874.72;;;8.25;46.28
63339;BME280;47485;51.378;-1.342;2022-11-11T04:06:17;100884.58;;;7.38;47.70
63339;BME280;47485;51.378;-1.342;2022-11-11T04:08:43;100877.95;;;10.29;44.67
63339;BME280;47485;51.378;-1.342;2022-11-11T04:11:12;100876.67;;;7.86;46.59
63339;BME280;47485;51.378;-1.342;2022-11-11T04:13:42;100883.11;;;6.68;45.99
63339;BME280;47485;51.378;-1.342;2022-11-11T04:16:11;100881.11;;;7.41;44.39
63339;BME280;47485;51.378;-1.342;2022-11-11T04:18:38;100885.61;;;8.25;43.29
63339;BME280;47485;51.378;-1.342;2022-11-11T04:21:05;100889.17;;;10.30;41.35
63339;BME280;47485;51.378;-1.342;2022-11-11T04:23:31;100894.99;;;8.30;44.68
63339;BME280;47485;51.378;-1.342;2022-11-11T04:25:59;100889.88;;;7.13;45.75
63339;BME280;47485;51.378;-1.342;2022-11-11T04:28:26;100894.99;;;6.89;46.91
63339;BME280;47485;51.378;-1.342;2022-11-11T04:30:53;100890.79;;;6.55;47.42
63339;BME280;47485;51.378;-1.342;2022-11-11T04:33:20;100894.47;;;8.15;45.39
63339;BME280;47485;51.378;-1.342;2022-11-11T04:35:48;100888.56;;;9.27;42.90
63339;BME280;47485;51.378;-1.342;2022-11-11T04:38:15;100890.93;;;8.23;45.40
63339;BME280;47485;51.378;-1.342;2022-11-11T04:40:42;100885.85;;;9.22;43.76
63339;BME280;47485;51.378;-1.342;2022-11-11T04:43:08;100893.43;;;9.69;41.19
63339;BME280;47485;51.378;-1.342;2022-11-11T04:45:36;100889.38;;;7.97;44.82
63339;BME280;47485;51.378;-1.342;2022-11-11T04:48:05;100901.69;;;9.01;41.65
63339;BME280;47485;51.378;-1.342;2022-11-11T04:50:34;100887.36;;;9.75;41.62
63339;BME280;47485;51.378;-1.342;2022-11-11T04:53:04;100891.28;;;9.25;41.49
63339;BME280;47485;51.378;-1.342;2022-11-11T04:55:31;100897.69;;;8.27;42.81
63339;BME280;47485;51.378;-1.342;2022-11-11T04:57:57;100892.77;;;10.02;41.35
63339;BME280;47485;51.378;-1.342;2022-11-11T05:00:24;100896.87;;;9.62;41.68
63339;BME280;47485;51.378;-1.342;2022-11-11T05:02:53;100897.62;;;8.23;42.07
63339;BME280;47485;51.378;-1.342;2022-11-11T05:05:19;100903.04;;;10.87;40.86
63339;BME280;47485;51.378;-1.342;2022-11-11T05:07:46;100898.83;;;10.84;41.73
63339;BME280;47485;51.378;-1.342;2022-11-11T05:10:13;100900.88;;;10.62;41.21
63339;BME280;47485;51.378;-1.342;2022-11-11T05:12:39;100899.99;;;9.30;43.98
63339;BME280;47485;51.378;-1.342;2022-11-11T05:15:08;100894.49;;;9.57;43.23
63339;BME280;47485;51.378;-1.342;2022-11-11T05:17:36;100896.70;;;10.08;41.53
63339;BME280;47485;51.378;-1.342;2022-11-11T05:20:03;100894.39;;;8.70;44.08
63339;BME280;47485;51.378;-1.342;2022-11-11T05:22:32;100897.46;;;4.54;48.13
63339;BME280;47485;51.378;-1.342;2022-11-11T05:25:00;100905.61;;;8.25;43.03
63339;BME280;47485;51.378;-1.342;2022-11-11T05:27:28;100902.63;;;7.82;44.16
63339;BME280;47485;51.378;-1.342;2022-11-11T05:29:54;100904.37;;;8.58;45.45
63339;BME280;47485;51.378;-1.342;2022-11-11T05:32:22;100904.13;;;6.83;45.40
63339;BME280;47485;51.378;-1.342;2022-11-11T05:34:49;100906.22;;;8.83;42.71
63339;BME280;47485;51.378;-1.342;2022-11-11T05:37:16;100903.59;;;9.84;41.67
63339;BME280;47485;51.378;-1.342;2022-11-11T05:39:44;100904.59;;;10.10;41.80
63339;BME280;47485;51.378;-1.342;2022-11-11T05:42:10;100911.87;;;9.62;41.02
63339;BME280;47485;51.378;-1.342;2022-11-11T05:44:37;100916.48;;;9.92;40.76
63339;BME280;47485;51.378;-1.342;2022-11-11T05:47:04;100916.32;;;8.90;41.53
63339;BME280;47485;51.378;-1.342;2022-11-11T05:49:31;100908.95;;;9.36;41.99
63339;BME280;47485;51.378;-1.342;2022-11-11T05:51:58;100915.94;;;9.98;42.86
63339;BME280;47485;51.378;-1.342;2022-11-11T05:54:26;100915.97;;;9.17;43.70
63339;BME280;47485;51.378;-1.342;2022-11-11T05:56:53;100914.63;;;8.90;43.52
63339;BME280;47485;51.378;-1.342;2022-11-11T05:59:20;100915.60;;;6.84;45.59
63339;BME280;47485;51.378;-1.342;2022-11-11T06:01:47;100914.14;;;9.85;44.18
63339;BME280;47485;51.378;-1.342;2022-11-11T06:04:14;100915.84;;;9.50;42.80
63339;BME280;47485;51.378;-1.342;2022-11-11T06:06:40;100924.25;;;10.17;41.64
63339;BME280;47485;51.378;-1.342;2022-11-11T06:09:07;100914.12;;;10.09;40.95
63339;BME280;47485;51.378;-1.342;2022-11-11T06:11:35;100922.21;;;8.02;43.30
63339;BME280;47485;51.378;-1.342;2022-11-11T06:14:03;100924.97;;;10.58;41.96
63339;BME280;47485;51.378;-1.342;2022-11-11T06:16:29;100932.93;;;9.02;42.73
63339;BME280;47485;51.378;-1.342;2022-11-11T06:18:56;100929.51;;;8.91;43.65
63339;BME280;47485;51.378;-1.342;2022-11-11T06:21:23;100927.85;;;6.99;46.03
63339;BME280;47485;51.378;-1.342;2022-11-11T06:23:49;100937.09;;;8.17;47.31
63339;BME280;47485;51.378;-1.342;2022-11-11T06:26:16;100933.25;;;7.09;49.43
63339;BME280;47485;51.378;-1.342;2022-11-11T06:28:44;100927.91;;;9.96;43.58
63339;BME280;47485;51.378;-1.342;2022-11-11T06:31:13;100941.36;;;7.71;46.62
63339;BME280;47485;51.378;-1.342;2022-11-11T06:33:40;100934.84;;;8.79;45.81
63339;BME280;47485;51.378;-1.342;2022-11-11T06:36:09;100932.51;;;7.21;46.98
63339;BME280;47485;51.378;-1.342;2022-11-11T06:38:36;100931.20;;;7.93;46.73
63339;BME280;47485;51.378;-1.342;2022-11-11T06:41:03;100925.76;;;8.13;47.00
63339;BME280;47485;51.378;-1.342;2022-11-11T06:43:30;100940.60;;;8.02;48.20
63339;BME280;47485;51.378;-1.342;2022-11-11T06:45:57;100946.49;;;9.81;45.91
63339;BME280;47485;51.378;-1.342;2022-11-11T06:48:26;100936.91;;;9.79;44.96
63339;BME280;47485;51.378;-1.342;2022-11-11T06:50:53;100938.14;;;9.28;44.63
63339;BME280;47485;51.378;-1.342;2022-11-11T06:53:21;100942.83;;;7.73;45.32
63339;BME280;47485;51.378;-1.342;2022-11-11T06:55:50;100941.41;;;10.03;40.29
63339;BME280;47485;51.378;-1.342;2022-11-11T06:58:19;100941.90;;;10.65;40.61
63339;BME280;47485;51.378;-1.342;2022-11-11T07:00:46;100953.02;;;8.35;44.91
63339;BME280;47485;51.378;-1.342;2022-11-11T07:03:16;100952.30;;;9.53;42.84
63339;BME280;47485;51.378;-1.342;2022-11-11T07:05:43;100964.01;;;8.86;43.76
63339;BME280;47485;51.378;-1.342;2022-11-11T07:08:12;100974.06;;;9.52;45.07
63339;BME280;47485;51.378;-1.342;2022-11-11T07:10:43;100975.97;;;7.71;45.47
63339;BME280;47485;51.378;-1.342;2022-11-11T07:13:10;100965.68;;;9.50;42.24
63339;BME280;47485;51.378;-1.342;2022-11-11T07:15:39;100976.32;;;11.43;41.88
63339;BME280;47485;51.378;-1.342;2022-11-11T07:18:06;100977.19;;;10.14;40.55
63339;BME280;47485;51.378;-1.342;2022-11-11T07:20:33;100974.38;;;10.59;44.05
63339;BME280;47485;51.378;-1.342;2022-11-11T07:23:00;100971.79;;;7.45;44.99
63339;BME280;47485;51.378;-1.342;2022-11-11T07:25:27;100971.03;;;10.37;43.04
63339;BME280;47485;51.378;-1.342;2022-11-11T07:27:54;100972.50;;;9.65;43.80
63339;BME280;47485;51.378;-1.342;2022-11-11T07:30:20;100976.02;;;10.54;41.76
63339;BME280;47485;51.378;-1.342;2022-11-11T07:32:48;100977.27;;;10.28;41.11
63339;BME280;47485;51.378;-1.342;2022-11-11T07:35:17;100989.28;;;10.45;40.68
63339;BME280;47485;51.378;-1.342;2022-11-11T07:37:44;100987.35;;;9.23;42.88
63339;BME280;47485;51.378;-1.342;2022-11-11T07:40:14;100995.92;;;6.48;46.01
63339;BME280;47485;51.378;-1.342;2022-11-11T07:42:42;100995.69;;;7.29;44.96
63339;BME280;47485;51.378;-1.342;2022-11-11T07:45:10;100995.78;;;10.63;41.62
63339;BME280;47485;51.378;-1.342;2022-11-11T07:47:37;100994.60;;;10.04;41.83
63339;BME280;47485;51.378;-1.342;2022-11-11T07:50:06;100998.08;;;8.49;42.86
63339;BME280;47485;51.378;-1.342;2022-11-11T07:52:35;100999.03;;;10.58;40.51
63339;BME280;47485;51.378;-1.342;2022-11-11T07:55:01;101007.40;;;10.82;41.65
63339;BME280;47485;51.378;-1.342;2022-11-11T07:57:28;101007.26;;;10.76;40.37
63339;BME280;47485;51.378;-1.342;2022-11-11T07:59:55;101006.70;;;11.95;39.00
63339;BME280;47485;51.378;-1.342;2022-11-11T08:02:21;101011.35;;;11.55;38.88
63339;BME280;47485;51.378;-1.342;2022-11-11T08:04:48;101012.72;;;10.59;40.65
63339;BME280;47485;51.378;-1.342;2022-11-11T08:07:14;101013.85;;;11.09;40.74
63339;BME280;47485;51.378;-1.342;2022-11-11T08:09:41;101020.73;;;9.03;42.15
63339;BME280;47485;51.378;-1.342;2022-11-11T08:12:08;101024.81;;;10.61;41.31
63339;BME280;47485;51.378;-1.342;2022-11-11T08:14:35;101026.91;;;11.40;40.34
63339;BME280;47485;51.378;-1.342;2022-11-11T08:17:02;101028.90;;;10.42;39.35
63339;BME280;47485;51.378;-1.342;2022-11-11T08:19:29;101029.54;;;10.99;40.22
63339;BME280;47485;51.378;-1.342;2022-11-11T08:21:56;101033.49;;;13.39;37.47
63339;BME280;47485;51.378;-1.342;2022-11-11T08:24:22;101031.66;;;10.83;37.58
63339;BME280;47485;51.378;-1.342;2022-11-11T08:26:49;101041.07;;;12.05;38.74
63339;BME280;47485;51.378;-1.342;2022-11-11T08:29:15;101038.18;;;10.89;37.52
63339;BME280;47485;51.378;-1.342;2022-11-11T08:31:43;101046.53;;;13.12;37.40
63339;BME280;47485;51.378;-1.342;2022-11-11T08:34:09;101050.85;;;10.89;38.18
63339;BME280;47485;51.378;-1.342;2022-11-11T08:36:36;101050.08;;;10.08;39.40
63339;BME280;47485;51.378;-1.342;2022-11-11T08:39:04;101052.37;;;10.16;39.43
63339;BME280;47485;51.378;-1.342;2022-11-11T08:41:31;101057.84;;;9.28;40.48
63339;BME280;47485;51.378;-1.342;2022-11-11T08:43:58;101062.01;;;11.88;37.72
63339;BME280;47485;51.378;-1.342;2022-11-11T08:46:26;101070.23;;;7.46;42.85
63339;BME280;47485;51.378;-1.342;2022-11-11T08:48:53;101067.20;;;12.01;38.35
63339;BME280;47485;51.378;-1.342;2022-11-11T08:51:21;101067.14;;;9.84;39.94
63339;BME280;47485;51.378;-1.342;2022-11-11T08:53:48;101070.38;;;10.95;38.33
63339;BME280;47485;51.378;-1.342;2022-11-11T08:56:14;101074.97;;;11.57;38.27
63339;BME280;47485;51.378;-1.342;2022-11-11T08:58:41;101078.70;;;10.74;40.60
63339;BME280;47485;51.378;-1.342;2022-11-11T09:01:10;101083.90;;;11.10;40.85
63339;BME280;47485;51.378;-1.342;2022-11-11T09:03:36;101088.57;;;11.81;40.18
63339;BME280;47485;51.378;-1.342;2022-11-11T09:06:03;101091.03;;;8.42;42.68
63339;BME280;47485;51.378;-1.342;2022-11-11T09:08:30;101086.94;;;11.26;39.34
63339;BME280;47485;51.378;-1.342;2022-11-11T09:10:57;101087.61;;;12.28;36.97
63339;BME280;47485;51.378;-1.342;2022-11-11T09:13:23;101089.87;;;11.37;37.43
63339;BME280;47485;51.378;-1.342;2022-11-11T09:15:52;101086.73;;;10.50;39.36
63339;BME280;47485;51.378;-1.342;2022-11-11T09:18:19;101089.43;;;11.83;38.85
63339;BME280;47485;51.378;-1.342;2022-11-11T09:20:46;101091.95;;;11.24;38.26
63339;BME280;47485;51.378;-1.342;2022-11-11T09:23:12;101092.27;;;12.05;37.36
63339;BME280;47485;51.378;-1.342;2022-11-11T09:25:39;101096.49;;;13.21;37.38
63339;BME280;47485;51.378;-1.342;2022-11-11T09:28:06;101098.59;;;10.90;39.26
63339;BME280;47485;51.378;-1.342;2022-11-11T09:30:33;101106.70;;;12.29;37.31
63339;BME280;47485;51.378;-1.342;2022-11-11T09:33:01;101109.97;;;11.77;37.73
63339;BME280;47485;51.378;-1.342;2022-11-11T09:35:28;101106.72;;;11.85;37.73
63339;BME280;47485;51.378;-1.342;2022-11-11T09:37:55;101101.01;;;12.20;37.41
63339;BME280;47485;51.378;-1.342;2022-11-11T09:40:25;101109.35;;;11.11;37.85
63339;BME280;47485;51.378;-1.342;2022-11-11T09:43:01;101106.01;;;11.02;37.00
63339;BME280;47485;51.378;-1.342;2022-11-11T09:45:38;101106.29;;;12.45;37.53
63339;BME280;47485;51.378;-1.342;2022-11-11T09:48:29;101111.35;;;10.94;37.78
63339;BME280;47485;51.378;-1.342;2022-11-11T09:51:01;101114.06;;;11.27;37.44
63339;BME280;47485;51.378;-1.342;2022-11-11T09:53:32;101120.59;;;12.25;38.86
63339;BME280;47485;51.378;-1.342;2022-11-11T09:56:01;101124.79;;;11.90;38.48
63339;BME280;47485;51.378;-1.342;2022-11-11T09:58:34;101122.02;;;11.09;40.23
63339;BME280;47485;51.378;-1.342;2022-11-11T10:01:07;101130.18;;;10.95;40.40
63339;BME280;47485;51.378;-1.342;2022-11-11T10:03:39;101130.05;;;12.31;38.63
63339;BME280;47485;51.378;-1.342;2022-11-11T10:06:13;101135.50;;;11.52;39.23
63339;BME280;47485;51.378;-1.342;2022-11-11T10:08:45;101128.31;;;12.47;39.07
63339;BME280;47485;51.378;-1.342;2022-11-11T10:11:17;101133.14;;;10.73;39.49
63339;BME280;47485;51.378;-1.342;2022-11-11T10:13:47;101135.96;;;11.39;38.53
63339;BME280;47485;51.378;-1.342;2022-11-11T10:16:18;101139.76;;;11.33;39.04
63339;BME280;47485;51.378;-1.342;2022-11-11T10:18:59;101140.82;;;12.37;38.53
63339;BME280;47485;51.378;-1.342;2022-11-11T10:21:33;101140.49;;;9.44;42.14
63339;BME280;47485;51.378;-1.342;2022-11-11T10:24:05;101147.32;;;10.97;40.62
63339;BME280;47485;51.378;-1.342;2022-11-11T10:26:39;101150.95;;;11.98;37.50
63339;BME280;47485;51.378;-1.342;2022-11-11T10:29:12;101153.29;;;10.76;39.19
63339;BME280;47485;51.378;-1.342;2022-11-11T10:31:41;101148.13;;;10.16;40.33
63339;BME280;47485;51.378;-1.342;2022-11-11T10:34:10;101155.88;;;8.24;42.12
63339;BME280;47485;51.378;-1.342;2022-11-11T10:36:42;101154.54;;;8.37;41.42
63339;BME280;47485;51.378;-1.342;2022-11-11T10:39:15;101163.24;;;7.35;43.42
63339;BME280;47485;51.378;-1.342;2022-11-11T10:41:46;101159.43;;;10.97;41.09
63339;BME280;47485;51.378;-1.342;2022-11-11T10:44:19;101156.40;;;10.15;40.83
63339;BME280;47485;51.378;-1.342;2022-11-11T10:46:55;101151.87;;;11.03;38.77
63339;BME280;47485;51.378;-1.342;2022-11-11T10:49:26;101155.22;;;12.43;37.99
63339;BME280;47485;51.378;-1.342;2022-11-11T10:51:59;101160.26;;;9.59;41.37
63339;BME280;47485;51.378;-1.342;2022-11-11T10:54:34;101156.47;;;9.64;40.20
63339;BME280;47485;51.378;-1.342;2022-11-11T10:57:10;101159.90;;;12.60;38.68
63339;BME280;47485;51.378;-1.342;2022-11-11T10:59:44;101164.43;;;12.75;38.16
63339;BME280;47485;51.378;-1.342;2022-11-11T11:02:18;101162.61;;;12.98;36.91
63339;BME280;47485;51.378;-1.342;2022-11-11T11:04:51;101165.40;;;12.59;39.83
63339;BME280;47485;51.378;-1.342;2022-11-11T11:07:26;101164.96;;;9.41;42.04
63339;BME280;47485;51.378;-1.342;2022-11-11T11:09:58;101169.12;;;12.14;39.86
63339;BME280;47485;51.378;-1.342;2022-11-11T11:12:31;101172.61;;;10.87;41.48
63339;BME280;47485;51.378;-1.342;2022-11-11T11:15:05;101173.44;;;11.31;40.65
63339;BME280;47485;51.378;-1.342;2022-11-11T11:17:37;101180.17;;;10.53;41.32
63339;BME280;47485;51.378;-1.342;2022-11-11T11:20:10;101175.06;;;11.50;39.51
63339;BME280;47485;51.378;-1.342;2022-11-11T11:22:44;101177.36;;;10.98;41.26
63339;BME280;47485;51.378;-1.342;2022-11-11T11:25:13;101179.51;;;10.24;40.30
63339;BME280;47485;51.378;-1.342;2022-11-11T11:27:40;101172.54;;;12.05;38.79
63339;BME280;47485;51.378;-1.342;2022-11-11T11:30:12;101171.29;;;9.67;41.81
63339;BME280;47485;51.378;-1.342;2022-11-11T11:32:40;101177.60;;;10.93;39.11
63339;BME280;47485;51.378;-1.342;2022-11-11T11:35:07;101183.67;;;11.43;38.35
63339;BME280;47485;51.378;-1.342;2022-11-11T11:37:47;101185.57;;;10.52;39.55
63339;BME280;47485;51.378;-1.342;2022-11-11T11:40:15;101178.24;;;9.68;40.05
63339;BME280;47485;51.378;-1.342;2022-11-11T11:42:42;101184.92;;;11.95;37.92
63339;BME280;47485;51.378;-1.342;2022-11-11T11:45:21;101183.04;;;10.11;39.31
63339;BME280;47485;51.378;-1.342;2022-11-11T11:48:00;101187.45;;;10.43;38.77
63339;BME280;47485;51.378;-1.342;2022-11-11T11:50:39;101188.26;;;11.11;38.12
63339;BME280;47485;51.378;-1.342;2022-11-11T11:53:21;101193.09;;;10.38;40.61
63339;BME280;47485;51.378;-1.342;2022-11-11T11:55:54;101181.59;;;12.37;39.18
63339;BME280;47485;51.378;-1.342;2022-11-11T11:58:35;101187.23;;;6.51;45.75
63339;BME280;47485;51.378;-1.342;2022-11-11T12:01:10;101178.20;;;8.96;41.51
63339;BME280;47485;51.378;-1.342;2022-11-11T12:04:55;101177.73;;;10.54;39.16
63339;BME280;47485;51.378;-1.342;2022-11-11T12:07:37;101176.85;;;12.40;37.84
63339;BME280;47485;51.378;-1.342;2022-11-11T12:10:21;101177.08;;;11.87;38.15
63339;BME280;47485;51.378;-1.342;2022-11-11T12:12:57;101174.98;;;9.18;39.98
63339;BME280;47485;51.378;-1.342;2022-11-11T12:15:33;101174.20;;;12.89;37.10
63339;BME280;47485;51.378;-1.342;2022-11-11T12:18:18;101179.05;;;12.05;38.06
63339;BME280;47485;51.378;-1.342;2022-11-11T12:20:56;101192.22;;;7.79;43.28
63339;BME280;47485;51.378;-1.342;2022-11-11T12:23:42;101187.88;;;11.10;39.95
63339;BME280;47485;51.378;-1.342;2022-11-11T12:26:20;101191.66;;;7.85;41.54
63339;BME280;47485;51.378;-1.342;2022-11-11T12:29:02;101193.58;;;9.00;41.73
63339;BME280;47485;51.378;-1.342;2022-11-11T12:31:42;101186.08;;;11.15;38.47
63339;BME280;47485;51.378;-1.342;2022-11-11T12:34:23;101187.28;;;13.64;35.93
63339;BME280;47485;51.378;-1.342;2022-11-11T12:37:00;101186.10;;;11.20;37.53
63339;BME280;47485;51.378;-1.342;2022-11-11T12:39:43;101187.75;;;9.75;38.64
63339;BME280;47485;51.378;-1.342;2022-11-11T12:42:26;101187.06;;;10.90;38.65
63339;BME280;47485;51.378;-1.342;2022-11-11T12:45:06;101184.37;;;13.96;35.49
63339;BME280;47485;51.378;-1.342;2022-11-11T12:47:45;101188.48;;;11.31;36.89
63339;BME280;47485;51.378;-1.342;2022-11-11T12:50:19;101180.37;;;10.09;39.76
63339;BME280;47485;51.378;-1.342;2022-11-11T12:52:58;101188.64;;;10.68;39.75
63339;BME280;47485;51.378;-1.342;2022-11-11T12:55:34;101179.88;;;9.20;39.55
63339;BME280;47485;51.378;-1.342;2022-11-11T12:58:16;101172.17;;;10.85;40.03